createdAt,value
2018-06-19T00:00:50.439Z,8.1
2018-06-19T00:02:50.499Z,8.0
2018-06-19T00:04:49.955Z,8.0
2018-06-19T00:06:50.212Z,8.0
2018-06-19T00:08:50.292Z,8.0
2018-06-19T00:10:50.403Z,8.1
2018-06-19T00:12:50.551Z,8.3
2018-06-19T00:14:49.771Z,8.9
2018-06-19T00:16:49.976Z,8.9
2018-06-19T00:18:50.060Z,8.9
2018-06-19T00:20:50.179Z,8.8
2018-06-19T00:22:50.339Z,8.6
2018-06-19T00:24:50.463Z,8.7
2018-06-19T00:26:49.734Z,8.7
2018-06-19T00:28:49.952Z,8.4
2018-06-19T00:30:50.018Z,9.0
2018-06-19T00:32:50.174Z,8.5
2018-06-19T00:34:49.540Z,8.8
2018-06-19T00:36:49.817Z,9.0
2018-06-19T00:38:49.926Z,9.0
2018-06-19T00:40:50.118Z,8.5
2018-06-19T00:42:50.218Z,9.4
2018-06-19T00:44:50.368Z,9.4
2018-06-19T00:46:49.612Z,8.8
2018-06-19T00:48:49.709Z,8.8
2018-06-19T00:50:49.897Z,9.0
2018-06-19T00:52:49.969Z,9.0
2018-06-19T00:54:50.118Z,9.0
2018-06-19T00:56:50.314Z,9.1
2018-06-19T00:58:49.864Z,9.4
2018-06-19T01:00:50.027Z,9.1
2018-06-19T01:02:50.123Z,9.2
2018-06-19T01:04:50.397Z,9.2
2018-06-19T01:06:49.639Z,9.9
2018-06-19T01:08:49.922Z,9.4
2018-06-19T01:10:50.037Z,9.6
2018-06-19T01:12:50.180Z,9.4
2018-06-19T01:14:50.260Z,9.4
2018-06-19T01:16:49.709Z,9.3
2018-06-19T01:18:49.811Z,9.6
2018-06-19T01:20:49.872Z,9.9
2018-06-19T01:22:49.994Z,9.9
2018-06-19T01:24:50.064Z,9.3
2018-06-19T01:26:50.298Z,9.7
2018-06-19T01:28:50.429Z,9.9
2018-06-19T01:30:49.539Z,9.9
2018-06-19T01:32:49.705Z,9.9
2018-06-19T01:34:50.020Z,10.2
2018-06-19T01:36:50.254Z,9.7
2018-06-19T01:38:50.460Z,9.6
2018-06-19T01:40:49.557Z,9.6
2018-06-19T01:42:49.657Z,10.7
2018-06-19T01:44:49.842Z,10.7
2018-06-19T01:46:50.105Z,9.6
2018-06-19T01:48:50.216Z,9.6
2018-06-19T01:50:50.308Z,9.5
2018-06-19T01:52:50.425Z,9.5
2018-06-19T01:54:49.549Z,9.3
2018-06-19T01:56:49.824Z,8.8
2018-06-19T01:58:49.956Z,8.8
2018-06-19T02:00:50.089Z,8.2
2018-06-19T02:02:50.219Z,8.2
2018-06-19T02:04:50.431Z,8.7
2018-06-19T02:06:49.583Z,8.2
2018-06-19T02:08:50.246Z,8.9
2018-06-19T02:10:50.356Z,8.7
2018-06-19T02:12:50.458Z,8.7
2018-06-19T02:14:49.544Z,8.3
2018-06-19T02:16:49.761Z,8.3
2018-06-19T02:18:49.879Z,7.7
2018-06-19T02:20:49.978Z,7.6
2018-06-19T02:22:50.102Z,7.6
2018-06-19T02:24:50.182Z,7.6
2018-06-19T02:26:50.399Z,7.4
2018-06-19T02:28:50.478Z,8.0
2018-06-19T02:30:50.393Z,8.0
2018-06-19T02:32:49.534Z,8.0
2018-06-19T02:34:50.015Z,7.9
2018-06-19T02:36:49.602Z,7.6
2018-06-19T02:38:49.777Z,7.6
2018-06-19T02:40:49.898Z,7.8
2018-06-19T02:42:49.976Z,7.6
2018-06-19T02:44:50.125Z,8.1
2018-06-19T02:46:50.462Z,7.6
2018-06-19T02:48:49.597Z,7.6
2018-06-19T02:50:49.725Z,7.6
2018-06-19T02:52:49.948Z,7.8
2018-06-19T02:54:50.105Z,7.5
2018-06-19T02:56:50.330Z,8.0
2018-06-19T02:58:50.465Z,7.7
2018-06-19T03:00:49.566Z,7.7
2018-06-19T03:02:49.708Z,7.6
2018-06-19T03:04:50.007Z,8.0
2018-06-19T03:06:50.235Z,8.0
2018-06-19T03:08:50.340Z,8.0
2018-06-19T03:10:50.419Z,7.9
2018-06-19T03:12:49.562Z,8.2
2018-06-19T03:14:49.732Z,7.6
2018-06-19T03:16:50.013Z,8.2
2018-06-19T03:18:50.262Z,8.2
2018-06-19T03:20:50.350Z,8.1
2018-06-19T03:22:49.538Z,7.9
2018-06-19T03:24:49.678Z,8.8
2018-06-19T03:26:49.954Z,8.8
2018-06-19T03:28:50.079Z,8.2
2018-06-19T03:30:50.177Z,8.4
2018-06-19T03:32:50.296Z,8.5
2018-06-19T03:34:49.752Z,7.9
2018-06-19T03:36:49.977Z,7.9
2018-06-19T03:38:50.135Z,7.5
2018-06-19T03:40:50.257Z,7.8
2018-06-19T03:42:50.398Z,7.6
2018-06-19T03:44:50.448Z,7.6
2018-06-19T03:46:49.680Z,7.6
2018-06-19T03:48:49.911Z,7.2
2018-06-19T03:50:50.015Z,7.8
2018-06-19T03:52:50.215Z,7.6
2018-06-19T03:54:50.300Z,7.6
2018-06-19T03:56:50.509Z,7.6
2018-06-19T03:58:49.646Z,7.6
2018-06-19T04:00:49.765Z,7.6
2018-06-19T04:02:49.914Z,7.3
2018-06-19T04:04:50.204Z,7.3
2018-06-19T04:06:50.500Z,7.3
2018-06-19T04:08:49.578Z,7.4
2018-06-19T04:10:49.726Z,7.8
2018-06-19T04:12:49.941Z,7.3
2018-06-19T04:14:50.073Z,7.3
2018-06-19T04:16:50.350Z,7.3
2018-06-19T04:18:50.451Z,7.5
2018-06-19T04:20:49.547Z,7.4
2018-06-19T04:22:49.603Z,7.4
2018-06-19T04:24:49.779Z,7.4
2018-06-19T04:26:50.478Z,7.1
2018-06-19T04:28:49.571Z,7.4
2018-06-19T04:30:49.836Z,7.2
2018-06-19T04:32:49.912Z,7.6
2018-06-19T04:34:50.279Z,7.6
2018-06-19T04:36:50.483Z,7.2
2018-06-19T04:38:49.648Z,6.9
2018-06-19T04:40:49.753Z,6.9
2018-06-19T04:42:49.814Z,7.2
2018-06-19T04:44:49.920Z,7.2
2018-06-19T04:46:50.091Z,7.3
2018-06-19T04:48:50.255Z,7.3
2018-06-19T04:50:50.409Z,6.8
2018-06-19T04:52:50.472Z,6.8
2018-06-19T04:54:49.732Z,6.9
2018-06-19T04:56:49.993Z,6.6
2018-06-19T04:58:50.137Z,7.2
2018-06-19T05:00:50.262Z,7.1
2018-06-19T05:02:50.365Z,6.9
2018-06-19T05:04:49.682Z,6.9
2018-06-19T05:06:49.971Z,6.7
2018-06-19T05:08:50.103Z,6.9
2018-06-19T05:10:50.228Z,6.8
2018-06-19T05:12:50.449Z,7.0
2018-06-19T05:14:49.936Z,7.0
2018-06-19T05:16:50.272Z,6.7
2018-06-19T05:18:50.355Z,6.7
2018-06-19T05:20:50.441Z,7.8
2018-06-19T05:22:49.533Z,7.1
2018-06-19T05:24:49.647Z,7.1
2018-06-19T05:26:49.956Z,7.1
2018-06-19T05:28:50.072Z,7.2
2018-06-19T05:30:50.181Z,7.0
2018-06-19T05:32:50.280Z,7.1
2018-06-19T05:34:49.523Z,7.1
2018-06-19T05:36:50.148Z,6.7
2018-06-19T05:38:50.434Z,7.4
2018-06-19T05:40:50.559Z,7.4
2018-06-19T05:42:49.644Z,7.0
2018-06-19T05:44:49.914Z,6.8
2018-06-19T05:46:50.260Z,7.1
2018-06-19T05:48:50.440Z,6.9
2018-06-19T05:50:49.538Z,6.9
2018-06-19T05:52:49.897Z,6.9
2018-06-19T05:54:50.509Z,6.8
2018-06-19T05:56:49.791Z,6.7
2018-06-19T05:58:49.861Z,6.4
2018-06-19T06:00:49.976Z,6.4
2018-06-19T06:02:50.072Z,6.3
2018-06-19T06:04:50.345Z,6.4
2018-06-19T06:06:49.571Z,6.7
2018-06-19T06:08:49.708Z,6.6
2018-06-19T06:10:49.799Z,5.9
2018-06-19T06:12:49.902Z,5.9
2018-06-19T06:14:50.076Z,5.6
2018-06-19T06:16:50.374Z,5.0
2018-06-19T06:18:49.522Z,4.9
2018-06-19T06:20:49.599Z,4.9
2018-06-19T06:22:49.689Z,4.4
2018-06-19T06:24:49.816Z,4.8
2018-06-19T06:26:50.058Z,4.0
2018-06-19T06:28:50.214Z,4.0
2018-06-19T06:30:50.413Z,4.1
2018-06-19T06:32:49.525Z,3.7
2018-06-19T06:34:49.817Z,3.8
2018-06-19T06:36:50.054Z,3.8
2018-06-19T06:38:50.217Z,3.7
2018-06-19T06:40:50.284Z,3.7
2018-06-19T06:42:50.409Z,3.5
2018-06-19T06:44:50.578Z,4.1
2018-06-19T06:46:50.475Z,4.0
2018-06-19T06:48:49.634Z,4.0
2018-06-19T06:50:49.738Z,3.5
2018-06-19T06:52:49.878Z,3.5
2018-06-19T06:54:49.954Z,3.5
2018-06-19T06:56:50.258Z,4.3
2018-06-19T06:58:50.389Z,4.3
2018-06-19T07:00:49.554Z,4.3
2018-06-19T07:02:49.761Z,4.3
2018-06-19T07:04:50.193Z,4.3
2018-06-19T07:06:49.523Z,3.5
2018-06-19T07:08:49.604Z,3.5
2018-06-19T07:10:49.681Z,3.8
2018-06-19T07:12:49.860Z,3.7
2018-06-19T07:14:50.005Z,3.7
2018-06-19T07:16:50.256Z,3.6
2018-06-19T07:18:50.571Z,3.9
2018-06-19T07:20:50.010Z,3.7
2018-06-19T07:22:50.097Z,3.6
2018-06-19T07:24:50.195Z,3.6
2018-06-19T07:26:50.467Z,3.8
2018-06-19T07:28:49.577Z,3.4
2018-06-19T07:30:49.820Z,3.6
2018-06-19T07:32:50.312Z,3.6
2018-06-19T07:34:49.765Z,3.4
2018-06-19T07:36:50.085Z,3.5
2018-06-19T07:38:49.829Z,3.5
2018-06-19T07:40:49.927Z,3.7
2018-06-19T07:42:50.116Z,3.7
2018-06-19T07:44:50.202Z,3.5
2018-06-19T07:46:50.444Z,3.5
2018-06-19T07:48:49.568Z,3.3
2018-06-19T07:50:49.732Z,3.3
2018-06-19T07:52:49.872Z,3.2
2018-06-19T07:54:49.927Z,3.2
2018-06-19T07:56:50.175Z,3.2
2018-06-19T07:58:50.358Z,3.2
2018-06-19T08:00:50.461Z,3.0
2018-06-19T08:02:49.543Z,2.9
2018-06-19T08:04:49.961Z,2.7
2018-06-19T08:06:50.218Z,2.7
2018-06-19T08:08:50.377Z,2.6
2018-06-19T08:10:50.449Z,2.8
2018-06-19T08:12:49.543Z,2.8
2018-06-19T08:14:49.667Z,3.0
2018-06-19T08:16:49.957Z,3.0
2018-06-19T08:18:50.168Z,3.0
2018-06-19T08:20:49.758Z,3.2
2018-06-19T08:22:50.050Z,3.2
2018-06-19T08:24:49.770Z,2.9
2018-06-19T08:26:49.916Z,3.2
2018-06-19T08:28:50.006Z,2.7
2018-06-19T08:30:50.089Z,2.8
2018-06-19T08:32:50.177Z,2.7
2018-06-19T08:34:50.520Z,2.7
2018-06-19T08:36:49.824Z,2.7
2018-06-19T08:38:49.895Z,2.6
2018-06-19T08:40:49.963Z,2.6
2018-06-19T08:42:50.057Z,2.6
2018-06-19T08:44:50.275Z,2.6
2018-06-19T08:46:50.484Z,2.6
2018-06-19T08:48:49.555Z,2.6
2018-06-19T08:50:49.645Z,2.6
2018-06-19T08:52:49.715Z,2.4
2018-06-19T08:54:49.805Z,2.4
2018-06-19T08:56:50.054Z,2.1
2018-06-19T08:58:50.164Z,2.4
2018-06-19T09:00:50.288Z,2.4
2018-06-19T09:02:50.365Z,3.0
2018-06-19T09:04:49.755Z,2.7
2018-06-19T09:06:49.987Z,2.7
2018-06-19T09:08:50.129Z,2.4
2018-06-19T09:10:50.210Z,2.1
2018-06-19T09:12:50.282Z,2.7
2018-06-19T09:14:50.392Z,2.0
2018-06-19T09:16:49.662Z,2.0
2018-06-19T09:18:49.743Z,2.1
2018-06-19T09:20:49.817Z,2.1
2018-06-19T09:22:49.934Z,2.3
2018-06-19T09:24:49.969Z,2.3
2018-06-19T09:26:50.262Z,2.3
2018-06-19T09:28:50.320Z,2.2
2018-06-19T09:30:50.375Z,2.0
2018-06-19T09:32:50.527Z,2.0
2018-06-19T09:34:49.966Z,2.3
2018-06-19T09:36:50.152Z,2.0
2018-06-19T09:38:50.269Z,1.9
2018-06-19T09:40:50.336Z,1.9
2018-06-19T09:42:50.448Z,2.0
2018-06-19T09:44:49.594Z,2.0
2018-06-19T09:46:49.756Z,2.0
2018-06-19T09:48:49.925Z,2.1
2018-06-19T09:50:50.111Z,2.1
2018-06-19T09:52:50.221Z,2.0
2018-06-19T09:54:49.567Z,2.2
2018-06-19T09:56:49.751Z,2.2
2018-06-19T09:58:49.857Z,2.8
2018-06-19T10:00:50.002Z,2.8
2018-06-19T10:02:50.189Z,2.1
2018-06-19T10:04:50.530Z,2.0
2018-06-19T10:06:49.838Z,2.2
2018-06-19T10:08:50.307Z,2.3
2018-06-19T10:10:50.442Z,2.3
2018-06-19T10:12:49.606Z,2.1
2018-06-19T10:14:49.687Z,2.2
2018-06-19T10:16:49.910Z,2.2
2018-06-19T10:18:49.990Z,2.3
2018-06-19T10:20:49.965Z,2.2
2018-06-19T10:22:50.042Z,2.2
2018-06-19T10:24:50.096Z,1.8
2018-06-19T10:26:50.255Z,1.8
2018-06-19T10:28:50.325Z,2.1
2018-06-19T10:30:50.411Z,1.9
2018-06-19T10:32:49.577Z,2.1
2018-06-19T10:34:49.848Z,1.9
2018-06-19T10:36:50.151Z,2.2
2018-06-19T10:38:50.250Z,2.2
2018-06-19T10:40:50.390Z,2.2
2018-06-19T10:42:49.579Z,2.2
2018-06-19T10:44:49.630Z,2.2
2018-06-19T10:46:49.902Z,2.3
2018-06-19T10:48:50.128Z,2.3
2018-06-19T10:50:50.269Z,2.7
2018-06-19T10:52:50.593Z,2.7
2018-06-19T10:54:50.090Z,2.2
2018-06-19T10:56:50.309Z,2.2
2018-06-19T10:58:50.488Z,2.1
2018-06-19T11:00:49.802Z,2.2
2018-06-19T11:02:49.900Z,1.9
2018-06-19T11:04:50.207Z,2.7
2018-06-19T11:06:50.397Z,2.2
2018-06-19T11:08:50.504Z,2.2
2018-06-19T11:10:49.581Z,2.2
2018-06-19T11:12:49.726Z,2.2
2018-06-19T11:14:49.830Z,2.2
2018-06-19T11:16:50.273Z,2.7
2018-06-19T11:18:50.353Z,2.7
2018-06-19T11:20:50.450Z,2.0
2018-06-19T11:22:49.586Z,2.1
2018-06-19T11:24:49.717Z,2.0
2018-06-19T11:26:49.894Z,2.1
2018-06-19T11:28:50.039Z,2.1
2018-06-19T11:30:50.151Z,2.5
2018-06-19T11:32:50.289Z,2.2
2018-06-19T11:34:49.609Z,2.2
2018-06-19T11:36:50.035Z,2.7
2018-06-19T11:38:50.227Z,2.7
2018-06-19T11:40:50.268Z,2.2
2018-06-19T11:42:50.477Z,2.2
2018-06-19T11:44:49.762Z,2.0
2018-06-19T11:46:50.052Z,2.0
2018-06-19T11:48:50.175Z,2.3
2018-06-19T11:50:50.285Z,2.3
2018-06-19T11:52:50.462Z,2.0
2018-06-19T11:54:50.519Z,2.3
2018-06-19T11:56:49.796Z,2.3
2018-06-19T11:58:50.236Z,2.3
2018-06-19T12:00:50.347Z,2.5
2018-06-19T12:02:49.518Z,2.1
2018-06-19T12:04:50.019Z,2.4
2018-06-19T12:06:50.487Z,2.7
2018-06-19T12:08:49.553Z,2.7
2018-06-19T12:10:49.656Z,3.1
2018-06-19T12:12:49.812Z,2.1
2018-06-19T12:14:49.941Z,2.4
2018-06-19T12:16:50.218Z,2.4
2018-06-19T12:18:50.321Z,2.3
2018-06-19T12:20:50.414Z,2.0
2018-06-19T12:22:49.594Z,2.4
2018-06-19T12:24:49.724Z,2.4
2018-06-19T12:26:49.949Z,2.2
2018-06-19T12:28:50.078Z,2.4
2018-06-19T12:30:50.191Z,1.9
2018-06-19T12:32:50.355Z,2.4
2018-06-19T12:34:49.582Z,2.4
2018-06-19T12:36:49.779Z,2.2
2018-06-19T12:38:49.923Z,2.3
2018-06-19T12:40:50.020Z,2.2
2018-06-19T12:42:50.107Z,2.2
2018-06-19T12:44:50.362Z,2.2
2018-06-19T12:46:49.914Z,2.0
2018-06-19T12:48:50.182Z,2.1
2018-06-19T12:50:50.471Z,1.9
2018-06-19T12:52:50.160Z,2.0
2018-06-19T12:54:50.211Z,2.2
2018-06-19T12:56:50.355Z,2.2
2018-06-19T12:58:50.316Z,2.1
2018-06-19T13:00:50.433Z,2.1
2018-06-19T13:02:49.625Z,2.1
2018-06-19T13:04:49.928Z,2.1
2018-06-19T13:06:50.065Z,2.0
2018-06-19T13:08:50.148Z,2.1
2018-06-19T13:10:50.289Z,2.5
2018-06-19T13:12:50.359Z,2.1
2018-06-19T13:14:50.180Z,2.1
2018-06-19T13:16:50.343Z,2.1
2018-06-19T13:18:50.402Z,2.1
2018-06-19T13:20:50.525Z,2.1
2018-06-19T13:22:50.427Z,2.1
2018-06-19T13:24:49.531Z,2.0
2018-06-19T13:26:49.741Z,2.3
2018-06-19T13:28:49.826Z,2.3
2018-06-19T13:30:50.501Z,2.3
2018-06-19T13:32:49.695Z,2.0
2018-06-19T13:34:50.136Z,2.2
2018-06-19T13:36:50.306Z,2.2
2018-06-19T13:38:50.358Z,2.1
2018-06-19T13:40:50.433Z,1.7
2018-06-19T13:42:49.542Z,1.7
2018-06-19T13:44:49.590Z,2.0
2018-06-19T13:46:49.535Z,1.9
2018-06-19T13:48:49.623Z,2.0
2018-06-19T13:50:49.709Z,1.8
2018-06-19T13:52:49.754Z,1.8
2018-06-19T13:54:49.832Z,1.9
2018-06-19T13:56:49.989Z,2.2
2018-06-19T13:58:50.100Z,2.0
2018-06-19T14:00:50.201Z,2.0
2018-06-19T14:02:50.331Z,2.1
2018-06-19T14:04:49.631Z,2.2
2018-06-19T14:06:49.815Z,2.0
2018-06-19T14:08:49.943Z,2.2
2018-06-19T14:10:50.059Z,2.1
2018-06-19T14:12:50.119Z,2.1
2018-06-19T14:14:50.085Z,2.1
2018-06-19T14:16:50.329Z,2.1
2018-06-19T14:18:50.394Z,2.2
2018-06-19T14:20:50.499Z,2.2
2018-06-19T14:22:49.600Z,2.0
2018-06-19T14:24:49.682Z,2.0
2018-06-19T14:26:49.884Z,1.8
2018-06-19T14:28:50.040Z,1.8
2018-06-19T14:30:50.418Z,2.1
2018-06-19T14:32:49.552Z,2.1
2018-06-19T14:34:49.871Z,1.9
2018-06-19T14:36:50.047Z,1.9
2018-06-19T14:38:50.275Z,1.7
2018-06-19T14:40:50.408Z,1.7
2018-06-19T14:42:49.508Z,1.8
2018-06-19T14:44:49.576Z,1.9
2018-06-19T14:46:49.885Z,2.1
2018-06-19T14:48:50.376Z,1.9
2018-06-19T14:50:50.520Z,1.9
2018-06-19T14:52:49.682Z,1.9
2018-06-19T14:54:49.711Z,2.0
2018-06-19T14:56:49.914Z,2.0
2018-06-19T14:58:49.993Z,2.0
2018-06-19T15:00:50.111Z,2.3
2018-06-19T15:02:50.215Z,2.2
2018-06-19T15:04:49.534Z,2.3
2018-06-19T15:06:49.799Z,2.0
2018-06-19T15:08:49.944Z,2.0
2018-06-19T15:10:50.062Z,2.2
2018-06-19T15:12:50.415Z,2.2
2018-06-19T15:14:49.573Z,2.1
2018-06-19T15:16:49.745Z,2.2
2018-06-19T15:18:49.995Z,2.2
2018-06-19T15:20:50.022Z,2.2
2018-06-19T15:22:50.159Z,2.1
2018-06-19T15:24:50.232Z,2.6
2018-06-19T15:26:50.443Z,2.3
2018-06-19T15:28:49.583Z,2.3
2018-06-19T15:30:49.624Z,2.0
2018-06-19T15:32:49.730Z,2.3
2018-06-19T15:34:49.982Z,2.3
2018-06-19T15:36:50.214Z,2.2
2018-06-19T15:38:50.309Z,2.2
2018-06-19T15:40:50.443Z,2.2
2018-06-19T15:42:50.505Z,2.0
2018-06-19T15:44:49.588Z,2.1
2018-06-19T15:46:49.820Z,1.9
2018-06-19T15:48:49.909Z,1.9
2018-06-19T15:50:50.079Z,2.0
2018-06-19T15:52:50.172Z,2.1
2018-06-19T15:54:50.233Z,2.2
2018-06-19T15:56:50.415Z,2.1
2018-06-19T15:58:49.514Z,2.1
2018-06-19T16:00:49.603Z,2.4
2018-06-19T16:02:49.689Z,2.4
2018-06-19T16:04:50.147Z,2.2
2018-06-19T16:06:50.417Z,2.2
2018-06-19T16:08:49.557Z,1.9
2018-06-19T16:10:49.679Z,2.1
2018-06-19T16:12:49.907Z,2.1
2018-06-19T16:14:50.015Z,2.1
2018-06-19T16:16:50.218Z,2.3
2018-06-19T16:18:50.317Z,2.1
2018-06-19T16:20:50.453Z,2.2
2018-06-19T16:22:49.620Z,2.6
2018-06-19T16:24:49.740Z,2.3
2018-06-19T16:26:50.018Z,2.2
2018-06-19T16:28:50.116Z,2.2
2018-06-19T16:30:50.170Z,2.3
2018-06-19T16:32:50.447Z,2.4
2018-06-19T16:34:49.810Z,2.4
2018-06-19T16:36:49.958Z,2.0
2018-06-19T16:38:50.101Z,2.7
2018-06-19T16:40:50.183Z,2.2
2018-06-19T16:42:50.392Z,2.4
2018-06-19T16:44:50.488Z,2.4
2018-06-19T16:46:49.704Z,2.5
2018-06-19T16:48:49.837Z,2.5
2018-06-19T16:50:49.915Z,2.5
2018-06-19T16:52:50.063Z,2.2
2018-06-19T16:54:50.182Z,2.2
2018-06-19T16:56:50.479Z,2.2
2018-06-19T16:58:49.600Z,2.2
2018-06-19T17:00:49.669Z,2.3
2018-06-19T17:02:49.831Z,2.5
2018-06-19T17:04:50.230Z,2.5
2018-06-19T17:06:50.430Z,2.4
2018-06-19T17:08:50.489Z,2.4
2018-06-19T17:10:49.615Z,2.5
2018-06-19T17:12:49.881Z,2.5
2018-06-19T17:14:49.935Z,2.5
2018-06-19T17:16:50.106Z,2.4
2018-06-19T17:18:50.172Z,2.5
2018-06-19T17:20:50.255Z,2.5
2018-06-19T17:22:50.296Z,2.5
2018-06-19T17:24:50.434Z,2.5
2018-06-19T17:26:49.716Z,2.4
2018-06-19T17:28:49.764Z,2.3
2018-06-19T17:30:49.991Z,3.1
2018-06-19T17:32:50.120Z,2.3
2018-06-19T17:34:50.454Z,2.3
2018-06-19T17:36:49.716Z,2.4
2018-06-19T17:38:49.839Z,2.3
2018-06-19T17:40:50.131Z,2.3
2018-06-19T17:42:50.421Z,2.3
2018-06-19T17:44:49.568Z,2.5
2018-06-19T17:46:49.786Z,3.6
2018-06-19T17:48:50.023Z,2.4
2018-06-19T17:50:50.143Z,2.4
2018-06-19T17:52:50.345Z,2.4
2018-06-19T17:54:50.427Z,2.4
2018-06-19T17:56:49.596Z,2.4
2018-06-19T17:58:49.689Z,2.3
2018-06-19T18:00:49.741Z,2.5
2018-06-19T18:02:49.963Z,2.5
2018-06-19T18:04:50.326Z,2.4
2018-06-19T18:06:49.564Z,2.4
2018-06-19T18:08:49.637Z,2.5
2018-06-19T18:10:50.002Z,2.5
2018-06-19T18:12:49.632Z,2.5
2018-06-19T18:14:49.747Z,2.6
2018-06-19T18:16:50.116Z,2.7
2018-06-19T18:18:50.262Z,2.7
2018-06-19T18:20:50.307Z,2.6
2018-06-19T18:22:50.453Z,2.8
2018-06-19T18:24:49.532Z,3.3
2018-06-19T18:26:49.873Z,2.8
2018-06-19T18:28:49.977Z,2.8
2018-06-19T18:30:50.023Z,2.8
2018-06-19T18:32:50.171Z,3.1
2018-06-19T18:34:50.421Z,3.1
2018-06-19T18:36:49.620Z,2.6
2018-06-19T18:38:49.873Z,2.8
2018-06-19T18:40:49.976Z,2.7
2018-06-19T18:42:50.144Z,2.7
2018-06-19T18:44:50.200Z,2.7
2018-06-19T18:46:50.681Z,2.8
2018-06-19T18:48:50.447Z,2.9
2018-06-19T18:50:49.585Z,2.9
2018-06-19T18:52:49.720Z,2.9
2018-06-19T18:54:49.758Z,2.8
2018-06-19T18:56:49.898Z,2.8
2018-06-19T18:58:49.957Z,3.1
2018-06-19T19:00:50.082Z,3.1
2018-06-19T19:02:50.340Z,3.0
2018-06-19T19:04:50.191Z,2.8
2018-06-19T19:06:50.543Z,2.7
2018-06-19T19:08:49.673Z,2.7
2018-06-19T19:10:49.816Z,3.1
2018-06-19T19:12:49.965Z,2.6
2018-06-19T19:14:50.116Z,2.8
2018-06-19T19:16:50.375Z,2.7
2018-06-19T19:18:50.471Z,2.7
2018-06-19T19:20:50.360Z,2.7
2018-06-19T19:22:49.752Z,3.1
2018-06-19T19:24:49.834Z,3.1
2018-06-19T19:26:50.023Z,3.4
2018-06-19T19:28:50.134Z,3.4
2018-06-19T19:30:50.025Z,3.1
2018-06-19T19:32:50.239Z,3.1
2018-06-19T19:34:50.517Z,2.9
2018-06-19T19:36:49.731Z,3.0
2018-06-19T19:38:49.987Z,3.0
2018-06-19T19:40:49.854Z,3.0
2018-06-19T19:42:50.218Z,2.7
2018-06-19T19:44:50.318Z,2.7
2018-06-19T19:46:49.584Z,2.9
2018-06-19T19:48:49.682Z,2.9
2018-06-19T19:50:50.420Z,2.6
2018-06-19T19:52:49.609Z,2.7
2018-06-19T19:54:49.791Z,2.9
2018-06-19T19:56:50.037Z,2.8
2018-06-19T19:58:50.111Z,2.8
2018-06-19T20:00:50.137Z,2.9
2018-06-19T20:02:50.217Z,2.7
2018-06-19T20:04:50.497Z,2.9
2018-06-19T20:06:49.664Z,2.9
2018-06-19T20:08:49.803Z,5.0
2018-06-19T20:10:49.870Z,3.3
2018-06-19T20:12:50.004Z,3.0
2018-06-19T20:14:50.115Z,3.0
2018-06-19T20:16:50.331Z,3.0
2018-06-19T20:18:50.375Z,2.9
2018-06-19T20:20:50.439Z,3.0
2018-06-19T20:22:50.500Z,3.2
2018-06-19T20:24:49.610Z,3.0
2018-06-19T20:26:49.762Z,3.0
2018-06-19T20:28:49.893Z,3.0
2018-06-19T20:30:50.004Z,3.0
2018-06-19T20:32:50.067Z,2.9
2018-06-19T20:34:50.293Z,2.9
2018-06-19T20:36:50.477Z,2.9
2018-06-19T20:38:49.553Z,2.9
2018-06-19T20:40:49.717Z,2.8
2018-06-19T20:42:49.769Z,2.9
2018-06-19T20:44:49.947Z,2.9
2018-06-19T20:46:50.184Z,3.2
2018-06-19T20:48:50.340Z,3.2
2018-06-19T20:50:50.471Z,3.2
2018-06-19T20:52:49.587Z,3.3
2018-06-19T20:54:49.714Z,2.9
2018-06-19T20:56:49.890Z,2.9
2018-06-19T20:58:49.998Z,2.9
2018-06-19T21:00:50.182Z,3.1
2018-06-19T21:02:50.322Z,3.0
2018-06-19T21:04:49.610Z,3.0
2018-06-19T21:06:49.807Z,3.2
2018-06-19T21:08:49.878Z,3.0
2018-06-19T21:10:49.936Z,3.1
2018-06-19T21:12:50.103Z,3.1
2018-06-19T21:14:50.216Z,3.1
2018-06-19T21:16:50.428Z,3.3
2018-06-19T21:18:49.579Z,3.2
2018-06-19T21:20:49.645Z,3.5
2018-06-19T21:22:49.698Z,3.5
2018-06-19T21:24:49.812Z,3.9
2018-06-19T21:26:50.011Z,4.0
2018-06-19T21:28:50.144Z,3.3
2018-06-19T21:30:50.205Z,3.5
2018-06-19T21:32:50.373Z,3.5
2018-06-19T21:34:49.581Z,3.6
2018-06-19T21:36:49.794Z,3.7
2018-06-19T21:38:49.867Z,4.0
2018-06-19T21:40:49.989Z,4.0
2018-06-19T21:42:50.115Z,4.1
2018-06-19T21:44:50.209Z,3.9
2018-06-19T21:46:50.396Z,4.4
2018-06-19T21:48:50.496Z,4.3
2018-06-19T21:50:49.626Z,4.3
2018-06-19T21:52:49.713Z,4.3
2018-06-19T21:54:49.791Z,4.2
2018-06-19T21:56:50.034Z,4.1
2018-06-19T21:58:50.123Z,4.0
2018-06-19T22:00:50.275Z,4.0
2018-06-19T22:02:50.408Z,4.5
2018-06-19T22:04:49.794Z,4.2
2018-06-19T22:06:50.028Z,4.5
2018-06-19T22:08:50.086Z,4.1
2018-06-19T22:10:49.946Z,4.0
2018-06-19T22:12:50.088Z,4.0
2018-06-19T22:14:50.185Z,4.7
2018-06-19T22:16:49.546Z,4.2
2018-06-19T22:18:49.910Z,4.4
2018-06-19T22:20:49.985Z,4.5
2018-06-19T22:22:50.094Z,4.5
2018-06-19T22:24:50.270Z,4.7
2018-06-19T22:26:49.566Z,4.6
2018-06-19T22:28:49.640Z,4.8
2018-06-19T22:30:49.769Z,4.8
2018-06-19T22:32:49.885Z,4.7
2018-06-19T22:34:50.209Z,5.0
2018-06-19T22:36:49.622Z,5.0
2018-06-19T22:38:49.761Z,5.3
2018-06-19T22:40:49.882Z,5.3
2018-06-19T22:42:50.072Z,5.2
2018-06-19T22:44:50.161Z,5.1
2018-06-19T22:46:49.589Z,5.0
2018-06-19T22:48:49.665Z,5.4
2018-06-19T22:50:49.736Z,5.4
2018-06-19T22:52:49.891Z,5.3
2018-06-19T22:54:50.219Z,5.7
2018-06-19T22:56:50.485Z,5.6
2018-06-19T22:58:49.569Z,5.9
2018-06-19T23:00:49.661Z,5.9
2018-06-19T23:02:49.765Z,5.8
2018-06-19T23:04:50.160Z,5.9
2018-06-19T23:06:50.366Z,5.9
2018-06-19T23:08:50.442Z,6.3
2018-06-19T23:10:49.581Z,6.3
2018-06-19T23:12:49.669Z,6.0
2018-06-19T23:14:49.734Z,6.1
2018-06-19T23:16:50.090Z,6.4
2018-06-19T23:18:50.144Z,6.4
2018-06-19T23:20:50.268Z,6.2
2018-06-19T23:22:49.590Z,6.2
2018-06-19T23:24:49.730Z,6.2
2018-06-19T23:26:50.026Z,6.1
2018-06-19T23:28:50.104Z,6.1
2018-06-19T23:30:50.216Z,6.1
2018-06-19T23:32:50.402Z,6.2
2018-06-19T23:34:49.712Z,6.2
2018-06-19T23:36:49.952Z,6.5
2018-06-19T23:38:50.161Z,6.5
2018-06-19T23:40:50.235Z,6.8
2018-06-19T23:42:50.412Z,6.5
2018-06-19T23:44:50.507Z,6.5
2018-06-19T23:46:49.774Z,6.8
2018-06-19T23:48:49.924Z,6.8
2018-06-19T23:50:50.043Z,7.2
2018-06-19T23:52:50.202Z,6.6
2018-06-19T23:54:50.252Z,6.9
2018-06-19T23:56:49.593Z,6.7
2018-06-19T23:58:49.689Z,6.7
